Time;durP1;ratioP1;P1;durP2;ratioP2;P2;SDS_P1;SDS_P2;PMS_P1;PMS_P2;Temp;Humidity;BMP_temperature;BMP_pressure;BME280_temperature;BME280_humidity;BME280_pressure;Samples;Min_cycle;Max_cycle;Signal;HPM_P1;HPM_P2
2022/09/24 00:01:11;;;;;;;;;;;13.30;99.90;;;;;;5070612;28;20390;-89
2022/09/24 00:03:38;;;;;;;0.32;0.32;;;13.20;99.90;;;;;;5056079;28;19923;-92
2022/09/24 00:06:05;;;;;;;0.82;0.82;;;13.20;99.90;;;;;;5040201;28;20169;-88
2022/09/24 00:08:32;;;;;;;0.60;0.60;;;13.20;99.90;;;;;;5058751;28;20056;-90
2022/09/24 00:11:01;;;;;;;1.70;1.60;;;13.20;99.90;;;;;;5072902;28;20524;-90
2022/09/24 00:13:32;;;;;;;1.35;1.25;;;13.10;99.90;;;;;;5071608;28;20040;-90
2022/09/24 00:16:03;;;;;;;1.40;1.30;;;13.00;99.90;;;;;;5068561;28;20036;-88
2022/09/24 00:18:29;;;;;;;2.47;1.40;;;13.10;99.90;;;;;;5058576;28;20047;-88
2022/09/24 00:20:55;;;;;;;0.82;0.82;;;13.10;99.90;;;;;;5070518;28;20435;-90
2022/09/24 00:23:21;;;;;;;5.10;1.70;;;13.10;99.90;;;;;;5038317;28;20041;-86
2022/09/24 00:28:32;;;;;;;0.63;0.63;;;13.10;99.90;;;;;;5043564;28;20494;-94
2022/09/24 00:31:02;;;;;;;0.43;0.43;;;13.10;99.90;;;;;;5079979;28;20050;-90
2022/09/24 00:33:28;;;;;;;1.00;1.00;;;13.10;99.90;;;;;;5072754;28;20048;-89
2022/09/24 00:36:04;;;;;;;0.73;0.73;;;13.20;99.90;;;;;;5056310;28;20043;-89
2022/09/24 00:38:33;;;;;;;;;;;13.10;99.90;;;;;;5071023;28;20040;-88
2022/09/24 00:41:00;;;;;;;0.35;0.35;;;13.10;99.90;;;;;;5065951;28;19923;-90
2022/09/24 00:43:36;;;;;;;0.45;0.45;;;13.10;99.90;;;;;;5060981;28;20041;-90
2022/09/24 00:46:20;;;;;;;2.65;1.02;;;13.10;99.90;;;;;;5072141;28;20040;-89
2022/09/24 00:48:48;;;;;;;1.48;1.23;;;13.10;99.90;;;;;;5061721;28;20049;-88
2022/09/24 00:51:21;;;;;;;0.40;0.40;;;13.10;99.90;;;;;;5071780;28;20500;-88
2022/09/24 00:53:51;;;;;;;0.50;0.50;;;13.10;99.90;;;;;;5061118;28;20043;-92
2022/09/24 00:56:19;;;;;;;0.68;0.68;;;13.10;99.90;;;;;;5083258;28;20141;-90
2022/09/24 00:58:50;;;;;;;0.73;0.73;;;13.10;99.90;;;;;;5064177;28;20032;-89
2022/09/24 01:01:20;;;;;;;0.55;0.55;;;13.10;99.90;;;;;;5051803;28;20044;-89
2022/09/24 01:03:46;;;;;;;1.05;1.02;;;13.10;99.90;;;;;;5032934;28;20044;-90
2022/09/24 01:06:12;;;;;;;;;;;13.10;99.90;;;;;;5039942;28;20394;-91
2022/09/24 01:08:39;;;;;;;1.00;0.77;;;13.10;99.90;;;;;;5054069;28;19928;-88
2022/09/24 01:11:32;;;;;;;0.40;0.40;;;13.10;99.90;;;;;;5042563;28;20113;-89
2022/09/24 01:14:07;;;;;;;0.63;0.63;;;13.10;99.90;;;;;;5085963;28;20438;-91
2022/09/24 01:16:44;;;;;;;1.48;1.38;;;13.10;99.90;;;;;;5076442;28;20048;-91
2022/09/24 01:19:43;;;;;;;0.30;0.30;;;13.10;99.90;;;;;;5063815;28;20051;-89
2022/09/24 01:22:39;;;;;;;1.13;1.13;;;13.20;99.90;;;;;;5053129;28;20037;-91
2022/09/24 01:25:28;;;;;;;0.93;0.93;;;13.20;99.90;;;;;;5054018;28;20071;-91
2022/09/24 01:28:07;;;;;;;10.05;2.92;;;13.20;99.90;;;;;;5049982;28;20044;-91
2022/09/24 01:30:37;;;;;;;1.27;1.05;;;13.20;99.90;;;;;;5062425;28;20036;-90
2022/09/24 01:33:07;;;;;;;3.03;0.68;;;13.20;99.90;;;;;;5083303;28;20044;-92
2022/09/24 01:35:47;;;;;;;0.45;0.45;;;13.30;99.90;;;;;;5053576;28;20321;-92
2022/09/24 01:38:19;;;;;;;1.73;1.63;;;13.70;99.90;;;;;;5072282;28;20041;-90
2022/09/24 01:40:46;;;;;;;1.02;0.90;;;13.30;99.90;;;;;;5070900;28;20040;-93
2022/09/24 01:43:15;;;;;;;2.60;1.92;;;13.30;99.90;;;;;;5042057;28;20074;-90
2022/09/24 01:45:41;;;;;;;2.42;2.25;;;13.30;99.90;;;;;;5060561;28;20097;-91
2022/09/24 01:48:07;;;;;;;;;;;13.30;99.90;;;;;;5084240;28;20044;-91
2022/09/24 01:50:44;;;;;;;1.50;1.05;;;13.30;99.90;;;;;;5055749;28;19916;-90
2022/09/24 01:53:23;;;;;;;3.65;3.35;;;13.30;99.90;;;;;;5067856;28;20044;-90
2022/09/24 01:55:58;;;;;;;1.08;0.98;;;13.30;99.90;;;;;;5075395;28;20048;-91
2022/09/24 01:58:39;;;;;;;1.42;1.33;;;13.30;99.90;;;;;;5066171;28;20046;-90
2022/09/24 02:01:13;;;;;;;0.57;0.57;;;13.40;99.90;;;;;;5068008;28;20036;-88
2022/09/24 02:03:44;;;;;;;3.20;2.20;;;13.40;99.90;;;;;;5069135;28;20074;-89
2022/09/24 02:06:24;;;;;;;1.65;1.55;;;13.40;99.90;;;;;;5075087;28;20098;-88
2022/09/24 02:08:50;;;;;;;2.55;1.05;;;13.40;99.90;;;;;;5091187;28;20059;-89
2022/09/24 02:11:18;;;;;;;;;;;13.40;99.90;;;;;;5078935;28;20041;-89
2022/09/24 02:13:59;;;;;;;1.83;1.73;;;13.40;99.90;;;;;;5060286;28;19931;-90
2022/09/24 02:16:45;;;;;;;1.52;1.42;;;13.40;99.90;;;;;;5080235;28;20486;-89
2022/09/24 02:19:15;;;;;;;0.73;0.73;;;13.40;99.90;;;;;;5100227;28;20039;-89
2022/09/24 02:21:43;;;;;;;0.75;0.63;;;13.40;99.90;;;;;;5086641;28;20043;-91
2022/09/24 02:24:41;;;;;;;0.88;0.88;;;13.40;99.90;;;;;;5068618;28;20112;-91
2022/09/24 02:27:07;;;;;;;1.55;0.88;;;13.40;99.90;;;;;;5070683;28;20338;-88
2022/09/24 02:29:33;;;;;;;1.75;1.25;;;13.40;99.90;;;;;;5054662;28;20458;-90
2022/09/24 02:31:59;;;;;;;0.73;0.73;;;13.40;99.90;;;;;;5084432;28;20043;-90
2022/09/24 02:34:33;;;;;;;2.47;1.10;;;13.40;99.90;;;;;;5029602;28;20036;-88
2022/09/24 02:37:09;;;;;;;0.40;0.40;;;13.40;99.90;;;;;;5081637;28;20036;-89
2022/09/24 02:39:35;;;;;;;0.20;0.20;;;13.40;99.90;;;;;;5050383;28;20040;-89
2022/09/24 02:42:04;;;;;;;1.05;0.93;;;13.40;99.90;;;;;;5040395;28;20128;-87
2022/09/24 02:44:33;;;;;;;0.60;0.60;;;13.30;99.90;;;;;;5067153;28;20040;-90
2022/09/24 02:46:59;;;;;;;0.45;0.45;;;13.40;99.90;;;;;;5057183;28;20048;-88
2022/09/24 02:49:25;;;;;;;0.30;0.30;;;13.40;99.90;;;;;;5066246;28;20051;-88
2022/09/24 02:51:51;;;;;;;0.73;0.73;;;13.40;99.90;;;;;;5076455;28;20052;-89
2022/09/24 02:54:17;;;;;;;0.40;0.40;;;13.40;99.90;;;;;;5058142;28;20032;-87
2022/09/24 02:56:42;;;;;;;0.38;0.35;;;13.40;99.90;;;;;;5046494;28;20071;-91
2022/09/24 02:59:08;;;;;;;1.60;1.08;;;13.40;99.90;;;;;;5067004;28;20040;-90
2022/09/24 03:01:37;;;;;;;0.63;0.63;;;13.40;99.90;;;;;;5048328;28;20040;-87
2022/09/24 03:04:03;;;;;;;0.40;0.40;;;13.40;99.90;;;;;;5067854;28;20577;-88
2022/09/24 03:06:29;;;;;;;0.30;0.30;;;13.40;99.90;;;;;;5057725;28;20037;-89
2022/09/24 03:08:55;;;;;;;0.30;0.30;;;13.40;99.90;;;;;;5058286;28;20057;-91
2022/09/24 03:11:22;;;;;;;0.40;0.40;;;13.40;99.90;;;;;;5078706;28;20051;-90
2022/09/24 03:13:48;;;;;;;3.50;0.50;;;13.40;99.90;;;;;;5078460;28;20037;-91
2022/09/24 03:16:15;;;;;;;0.95;0.95;;;13.50;99.90;;;;;;5059257;28;20047;-88
2022/09/24 03:18:41;;;;;;;0.75;0.75;;;13.40;99.90;;;;;;5049722;28;20044;-90
2022/09/24 03:21:10;;;;;;;2.15;1.20;;;13.40;99.90;;;;;;5066801;28;20037;-88
2022/09/24 03:23:36;;;;;;;0.68;0.63;;;13.50;99.90;;;;;;5074359;28;20512;-89
2022/09/24 03:26:03;;;;;;;0.57;0.57;;;13.50;99.90;;;;;;5059640;28;20040;-88
2022/09/24 03:28:30;;;;;;;0.68;0.68;;;13.50;99.90;;;;;;5088434;28;20457;-88
2022/09/24 03:30:58;;;;;;;0.40;0.40;;;13.50;99.90;;;;;;5064556;28;20043;-89
2022/09/24 03:33:25;;;;;;;0.30;0.30;;;13.50;99.90;;;;;;5041353;28;20032;-90
2022/09/24 03:35:57;;;;;;;0.85;0.85;;;13.50;99.90;;;;;;5060979;28;20097;-88
2022/09/24 03:38:23;;;;;;;0.25;0.25;;;13.50;99.90;;;;;;5059434;28;20080;-88
2022/09/24 03:40:49;;;;;;;;;;;13.50;99.90;;;;;;5069178;28;20037;-90
2022/09/24 03:43:14;;;;;;;0.73;0.73;;;13.50;99.90;;;;;;5063430;28;19917;-86
2022/09/24 03:45:40;;;;;;;0.65;0.55;;;13.50;99.90;;;;;;5052988;28;20126;-88
2022/09/24 03:48:06;;;;;;;0.20;0.20;;;13.50;99.90;;;;;;5069188;28;20048;-89
2022/09/24 03:50:36;;;;;;;0.30;0.30;;;13.40;99.90;;;;;;5059280;28;20075;-91
2022/09/24 03:53:03;;;;;;;1.35;0.75;;;13.50;99.90;;;;;;5041196;28;20041;-88
2022/09/24 03:55:28;;;;;;;0.52;0.45;;;13.50;99.90;;;;;;5070460;28;20489;-86
2022/09/24 03:57:55;;;;;;;0.40;0.40;;;13.50;99.90;;;;;;5068633;28;20076;-89
2022/09/24 04:00:22;;;;;;;0.80;0.80;;;13.50;99.90;;;;;;5075748;28;20071;-87
2022/09/24 04:02:48;;;;;;;0.98;0.75;;;13.50;99.90;;;;;;5017932;28;20525;-88
2022/09/24 04:05:15;;;;;;;0.40;0.40;;;13.50;99.90;;;;;;5039359;28;20555;-90
2022/09/24 04:07:44;;;;;;;0.30;0.30;;;13.50;99.90;;;;;;5064598;28;20083;-89
2022/09/24 04:10:10;;;;;;;0.30;0.30;;;13.60;99.90;;;;;;5071664;28;20059;-87
2022/09/24 04:12:39;;;;;;;0.15;0.15;;;13.60;99.90;;;;;;5063342;28;20044;-85
2022/09/24 04:15:05;;;;;;;1.25;0.68;;;13.60;99.90;;;;;;5084911;28;20048;-84
2022/09/24 04:17:32;;;;;;;0.35;0.35;;;13.60;99.90;;;;;;5075937;28;20048;-88
2022/09/24 04:19:58;;;;;;;0.38;0.38;;;13.60;99.90;;;;;;5067169;28;20528;-89
2022/09/24 04:22:27;;;;;;;0.40;0.40;;;13.60;99.90;;;;;;5023089;28;20041;-86
2022/09/24 04:24:56;;;;;;;0.28;0.28;;;13.60;99.90;;;;;;5059133;28;20058;-87
2022/09/24 04:27:22;;;;;;;0.30;0.30;;;13.60;99.90;;;;;;5080464;28;20109;-87
2022/09/24 04:29:48;;;;;;;0.30;0.30;;;13.60;99.90;;;;;;5059868;28;20037;-83
2022/09/24 04:32:14;;;;;;;0.30;0.30;;;13.60;99.90;;;;;;5084458;28;20444;-86
2022/09/24 04:34:40;;;;;;;;;;;13.50;99.90;;;;;;5054873;28;20058;-85
2022/09/24 04:37:05;;;;;;;0.30;0.30;;;13.50;99.90;;;;;;5067931;28;20385;-86
2022/09/24 04:39:31;;;;;;;0.13;0.13;;;13.60;99.90;;;;;;5052791;28;20052;-86
2022/09/24 04:41:57;;;;;;;0.25;0.25;;;13.50;99.90;;;;;;5067272;28;20040;-89
2022/09/24 04:44:23;;;;;;;0.30;0.30;;;13.50;99.90;;;;;;5072170;28;20114;-89
2022/09/24 04:46:49;;;;;;;0.30;0.30;;;13.50;99.90;;;;;;5061963;28;20040;-85
2022/09/24 04:49:14;;;;;;;0.30;0.30;;;13.50;99.90;;;;;;5048210;28;20044;-88
2022/09/24 04:51:40;;;;;;;0.20;0.20;;;13.50;99.90;;;;;;5040928;28;20093;-84
2022/09/24 04:54:07;;;;;;;0.20;0.20;;;13.50;99.90;;;;;;5074588;28;20100;-88
2022/09/24 04:56:32;;;;;;;0.32;0.32;;;13.40;99.90;;;;;;5057649;28;20174;-86
2022/09/24 04:58:58;;;;;;;0.30;0.30;;;13.40;99.90;;;;;;5054394;28;20063;-86
2022/09/24 05:01:24;;;;;;;0.30;0.30;;;13.40;99.90;;;;;;5070158;28;20045;-87
2022/09/24 05:03:50;;;;;;;;;;;13.40;99.90;;;;;;5084882;28;20036;-90
2022/09/24 05:06:15;;;;;;;0.30;0.30;;;13.40;99.90;;;;;;5095224;28;19923;-85
2022/09/24 05:08:41;;;;;;;0.30;0.30;;;13.50;99.90;;;;;;5070703;28;20497;-86
2022/09/24 05:11:07;;;;;;;0.40;0.40;;;13.40;99.90;;;;;;5084613;28;20094;-90
2022/09/24 05:13:34;;;;;;;0.30;0.30;;;13.40;99.90;;;;;;5058493;28;20037;-86
2022/09/24 05:16:01;;;;;;;0.25;0.25;;;13.40;99.90;;;;;;5052183;28;20120;-86
2022/09/24 05:18:27;;;;;;;1.33;1.23;;;13.40;99.90;;;;;;5061828;28;20048;-85
2022/09/24 05:20:53;;;;;;;0.38;0.38;;;13.40;99.90;;;;;;5073137;28;20045;-89
2022/09/24 05:23:19;;;;;;;0.30;0.30;;;13.50;99.90;;;;;;5061690;28;20051;-87
2022/09/24 05:28:32;;;;;;;;;;;13.40;99.90;;;;;;5062197;28;20048;-87
2022/09/24 05:31:01;;;;;;;0.30;0.30;;;13.40;99.90;;;;;;5073364;28;20286;-88
2022/09/24 05:33:27;;;;;;;0.20;0.20;;;13.40;99.90;;;;;;5050301;28;20584;-86
2022/09/24 05:35:59;;;;;;;0.20;0.20;;;13.40;99.90;;;;;;5051252;28;20052;-84
2022/09/24 05:38:25;;;;;;;0.30;0.30;;;13.50;99.90;;;;;;5069839;28;20360;-88
2022/09/24 05:40:50;;;;;;;0.35;0.35;;;13.50;99.90;;;;;;5049622;28;20059;-86
2022/09/24 05:43:20;;;;;;;0.10;0.10;;;13.50;99.90;;;;;;5051837;28;20065;-87
2022/09/24 05:45:46;;;;;;;0.50;0.50;;;13.50;99.90;;;;;;5072039;28;20115;-87
2022/09/24 05:48:12;;;;;;;0.20;0.20;;;13.50;99.90;;;;;;5071685;28;20051;-85
2022/09/24 05:50:38;;;;;;;0.30;0.30;;;13.50;99.90;;;;;;5070220;28;20393;-84
2022/09/24 05:53:04;;;;;;;0.32;0.32;;;13.50;99.90;;;;;;5056833;28;20445;-86
2022/09/24 05:55:30;;;;;;;0.10;0.10;;;13.50;99.90;;;;;;5068116;28;20123;-86
2022/09/24 05:58:02;;;;;;;0.32;0.32;;;13.60;99.90;;;;;;5071018;28;20097;-87
2022/09/24 06:00:28;;;;;;;0.32;0.32;;;13.50;99.90;;;;;;5070966;28;20044;-88
2022/09/24 06:02:53;;;;;;;0.30;0.30;;;13.60;99.90;;;;;;5063068;28;20460;-86
2022/09/24 06:05:20;;;;;;;0.80;0.38;;;13.60;99.90;;;;;;5059949;28;20040;-87
2022/09/24 06:07:46;;;;;;;0.20;0.20;;;13.60;99.90;;;;;;5034806;28;20036;-86
2022/09/24 06:10:12;;;;;;;0.30;0.30;;;13.60;99.90;;;;;;5046373;28;20056;-86
2022/09/24 06:12:37;;;;;;;0.20;0.20;;;13.60;99.90;;;;;;5069971;28;20048;-85
2022/09/24 06:15:03;;;;;;;0.30;0.30;;;13.60;99.90;;;;;;5054667;28;20036;-84
2022/09/24 06:17:30;;;;;;;;;;;13.70;99.90;;;;;;5051894;28;20131;-88
2022/09/24 06:19:56;;;;;;;0.30;0.30;;;13.70;99.90;;;;;;5075480;28;19920;-84
2022/09/24 06:22:22;;;;;;;;;;;13.70;99.90;;;;;;5058974;28;20094;-88
2022/09/24 06:24:50;;;;;;;0.30;0.30;;;13.70;99.90;;;;;;5067764;28;19916;-87
2022/09/24 06:27:15;;;;;;;5.93;1.55;;;13.80;99.90;;;;;;5060514;28;20052;-87
2022/09/24 06:29:41;;;;;;;0.30;0.30;;;13.80;99.90;;;;;;5039135;28;20049;-86
2022/09/24 06:32:08;;;;;;;0.30;0.30;;;13.80;99.90;;;;;;5081004;28;20239;-86
2022/09/24 06:34:34;;;;;;;0.20;0.20;;;13.80;99.90;;;;;;5057549;28;20055;-87
2022/09/24 06:37:00;;;;;;;0.30;0.30;;;13.80;99.90;;;;;;5076165;28;20044;-88
2022/09/24 06:39:25;;;;;;;0.30;0.30;;;13.90;99.90;;;;;;5054262;28;20409;-83
2022/09/24 06:41:52;;;;;;;0.52;0.52;;;13.90;99.90;;;;;;5055656;28;20410;-85
2022/09/24 06:44:23;;;;;;;0.30;0.30;;;13.90;99.90;;;;;;5068620;28;20066;-84
2022/09/24 06:46:50;;;;;;;0.20;0.20;;;13.90;99.90;;;;;;5054764;28;20053;-86
2022/09/24 06:49:15;;;;;;;1.40;0.95;;;13.90;99.90;;;;;;5056403;28;20153;-88
2022/09/24 06:51:41;;;;;;;0.30;0.30;;;13.90;99.90;;;;;;5038748;28;20041;-85
2022/09/24 06:54:07;;;;;;;2.72;0.90;;;13.90;99.90;;;;;;5067291;28;20043;-87
2022/09/24 06:56:33;;;;;;;0.22;0.22;;;13.90;99.90;;;;;;5050837;28;20482;-85
2022/09/24 06:58:58;;;;;;;0.20;0.20;;;14.00;99.90;;;;;;5053041;28;20041;-84
2022/09/24 07:01:24;;;;;;;0.75;0.75;;;14.00;99.90;;;;;;5062908;28;20064;-83
2022/09/24 07:03:50;;;;;;;0.30;0.30;;;14.00;99.90;;;;;;5055717;28;20048;-83
2022/09/24 07:06:15;;;;;;;0.30;0.30;;;14.00;99.90;;;;;;5063886;28;20045;-83
2022/09/24 07:08:42;;;;;;;0.30;0.30;;;14.10;99.90;;;;;;5086042;28;20051;-86
2022/09/24 07:11:07;;;;;;;0.60;0.60;;;14.10;99.90;;;;;;5072144;28;20099;-83
2022/09/24 07:13:33;;;;;;;0.50;0.47;;;14.10;99.90;;;;;;5040602;28;20076;-85
2022/09/24 07:16:00;;;;;;;;;;;14.20;99.90;;;;;;5067613;28;20079;-83
2022/09/24 07:18:26;;;;;;;0.30;0.30;;;14.20;99.90;;;;;;5053825;28;20396;-85
2022/09/24 07:20:52;;;;;;;;;;;14.20;99.90;;;;;;5081096;28;20043;-83
2022/09/24 07:23:18;;;;;;;0.30;0.30;;;14.30;99.90;;;;;;5084996;28;19928;-84
2022/09/24 07:25:44;;;;;;;;;;;14.30;99.90;;;;;;5072626;28;20321;-83
2022/09/24 07:28:12;;;;;;;0.88;0.57;;;14.30;99.90;;;;;;5067582;28;19920;-85
2022/09/24 07:30:38;;;;;;;0.30;0.30;;;14.30;99.90;;;;;;5030810;28;20102;-84
2022/09/24 07:33:06;;;;;;;0.20;0.20;;;14.30;99.90;;;;;;5051934;28;20049;-84
2022/09/24 07:35:32;;;;;;;0.35;0.35;;;14.30;99.90;;;;;;5069705;28;20071;-87
2022/09/24 07:38:07;;;;;;;0.20;0.20;;;14.30;99.90;;;;;;5070197;28;20362;-83
2022/09/24 07:40:33;;;;;;;0.20;0.20;;;14.30;99.90;;;;;;5067728;28;20050;-82
2022/09/24 07:42:59;;;;;;;0.20;0.20;;;14.20;99.90;;;;;;5051145;28;20052;-85
2022/09/24 07:45:30;;;;;;;0.30;0.30;;;14.20;99.90;;;;;;5066904;28;20489;-82
2022/09/24 07:48:00;;;;;;;0.30;0.30;;;14.20;99.90;;;;;;5052022;28;20041;-85
2022/09/24 07:50:28;;;;;;;0.30;0.30;;;14.10;99.90;;;;;;5070613;28;20088;-83
2022/09/24 07:52:54;;;;;;;0.40;0.40;;;14.10;99.90;;;;;;5069970;28;20040;-84
2022/09/24 07:55:20;;;;;;;0.30;0.30;;;14.10;99.90;;;;;;5078812;28;20093;-83
2022/09/24 07:57:52;;;;;;;0.20;0.20;;;14.20;99.90;;;;;;5070385;28;20049;-84
2022/09/24 08:00:20;;;;;;;0.17;0.17;;;14.20;99.90;;;;;;5056773;28;20044;-83
2022/09/24 08:02:46;;;;;;;0.20;0.20;;;14.20;99.90;;;;;;5066772;28;20473;-84
2022/09/24 08:05:16;;;;;;;0.25;0.25;;;14.20;99.90;;;;;;5066944;28;20115;-82
2022/09/24 08:07:52;;;;;;;0.30;0.30;;;14.30;99.90;;;;;;5061631;28;20068;-83
2022/09/24 08:10:18;;;;;;;0.45;0.43;;;14.30;99.90;;;;;;5060482;28;20469;-82
2022/09/24 08:12:44;;;;;;;0.30;0.30;;;14.40;99.90;;;;;;5069304;28;20124;-83
2022/09/24 08:15:10;;;;;;;0.20;0.20;;;14.40;99.90;;;;;;5036377;28;20119;-87
2022/09/24 08:17:35;;;;;;;;;;;14.50;99.90;;;;;;5076037;28;20427;-85
2022/09/24 08:20:01;;;;;;;0.30;0.30;;;14.50;99.90;;;;;;5056861;28;19920;-84
2022/09/24 08:22:26;;;;;;;;;;;14.60;99.90;;;;;;5069291;28;20044;-83
2022/09/24 08:24:53;;;;;;;0.30;0.30;;;14.60;99.90;;;;;;5053922;28;20262;-83
2022/09/24 08:27:22;;;;;;;;;;;14.60;99.90;;;;;;5066796;28;20037;-83
2022/09/24 08:29:48;;;;;;;0.20;0.20;;;14.60;99.90;;;;;;5070643;28;20011;-83
2022/09/24 08:32:14;;;;;;;0.30;0.30;;;14.70;99.90;;;;;;5050543;28;20127;-82
2022/09/24 08:34:39;;;;;;;0.20;0.20;;;14.70;99.90;;;;;;5064541;28;20037;-83
2022/09/24 08:37:08;;;;;;;0.20;0.20;;;14.70;99.90;;;;;;5063849;28;20067;-83
2022/09/24 08:39:37;;;;;;;0.32;0.32;;;14.70;99.90;;;;;;5047900;28;20064;-85
2022/09/24 08:42:13;;;;;;;0.30;0.30;;;14.70;99.90;;;;;;5067551;28;20051;-81
2022/09/24 08:47:56;;;;;;;0.20;0.20;;;14.80;99.90;;;;;;5066010;28;20452;-82
2022/09/24 08:50:33;;;;;;;0.20;0.20;;;14.80;99.90;;;;;;5061346;28;20482;-84
2022/09/24 08:53:26;;;;;;;0.30;0.28;;;14.70;99.90;;;;;;5069586;28;20045;-83
2022/09/24 08:55:59;;;;;;;0.30;0.30;;;14.70;99.90;;;;;;5054738;28;20048;-85
2022/09/24 08:58:39;;;;;;;0.35;0.35;;;14.80;99.90;;;;;;5055573;28;20482;-83
2022/09/24 09:01:19;;;;;;;0.50;0.50;;;14.80;99.90;;;;;;5068980;28;20489;-82
2022/09/24 09:03:48;;;;;;;7.05;1.40;;;14.80;99.90;;;;;;5087724;28;20040;-82
2022/09/24 09:06:41;;;;;;;0.30;0.30;;;14.90;99.90;;;;;;5064872;28;20398;-83
2022/09/24 09:09:16;;;;;;;0.30;0.30;;;15.00;99.90;;;;;;5038705;28;20203;-84
2022/09/24 09:11:57;;;;;;;0.30;0.30;;;15.10;99.90;;;;;;5055186;28;20036;-82
2022/09/24 09:14:28;;;;;;;0.20;0.20;;;15.10;99.90;;;;;;5080617;28;20452;-84
2022/09/24 09:17:02;;;;;;;0.40;0.40;;;15.00;99.90;;;;;;5063378;28;20083;-85
2022/09/24 09:19:34;;;;;;;0.73;0.73;;;14.90;99.90;;;;;;5063928;28;20076;-85
2022/09/24 09:22:15;;;;;;;0.30;0.30;;;14.80;99.90;;;;;;5060529;28;20097;-84
2022/09/24 09:24:46;;;;;;;0.30;0.30;;;14.80;99.90;;;;;;5069452;28;20123;-83
2022/09/24 09:27:13;;;;;;;0.20;0.20;;;14.80;99.90;;;;;;5080791;28;20040;-83
2022/09/24 09:29:41;;;;;;;0.30;0.30;;;14.80;99.90;;;;;;5072363;28;20040;-84
2022/09/24 09:32:25;;;;;;;0.20;0.20;;;14.80;99.90;;;;;;5050513;28;20043;-83
2022/09/24 09:35:00;;;;;;;0.30;0.30;;;14.80;99.90;;;;;;5068969;28;20058;-83
2022/09/24 09:37:41;;;;;;;0.30;0.30;;;14.70;99.90;;;;;;5068032;28;20068;-83
2022/09/24 09:40:46;;;;;;;0.20;0.20;;;14.70;99.90;;;;;;5056212;28;20048;-83
2022/09/24 09:43:13;;;;;;;0.30;0.30;;;14.70;99.90;;;;;;5059122;28;20139;-81
2022/09/24 09:46:06;;;;;;;0.20;0.20;;;14.70;99.90;;;;;;5065011;28;20049;-83
2022/09/24 09:48:47;;;;;;;0.30;0.30;;;14.60;99.90;;;;;;5047319;28;20132;-84
2022/09/24 09:51:18;;;;;;;0.30;0.30;;;14.70;99.90;;;;;;5075329;28;20048;-84
2022/09/24 09:54:01;;;;;;;0.30;0.30;;;14.80;99.90;;;;;;5054792;28;20036;-84
2022/09/24 09:56:35;;;;;;;0.20;0.20;;;14.80;99.90;;;;;;5051069;28;20075;-82
2022/09/24 09:59:18;;;;;;;0.20;0.20;;;14.90;99.90;;;;;;5043288;28;20041;-84
2022/09/24 10:01:46;;;;;;;0.82;0.82;;;14.90;99.90;;;;;;5063928;28;20055;-83
2022/09/24 10:04:33;;;;;;;0.20;0.20;;;14.90;99.90;;;;;;5065960;28;20048;-83
2022/09/24 10:07:11;;;;;;;0.20;0.20;;;15.00;99.90;;;;;;5052807;28;20044;-83
2022/09/24 10:09:38;;;;;;;0.50;0.50;;;15.10;99.90;;;;;;5072797;28;20521;-84
2022/09/24 10:12:21;;;;;;;0.30;0.30;;;15.10;99.90;;;;;;5051792;28;20402;-83
2022/09/24 10:15:18;;;;;;;0.20;0.20;;;15.10;99.90;;;;;;5068221;28;20116;-83
2022/09/24 10:17:46;;;;;;;0.20;0.20;;;15.00;99.90;;;;;;5055159;28;20132;-83
2022/09/24 10:20:26;;;;;;;0.52;0.52;;;15.00;99.90;;;;;;5054392;28;20044;-84
2022/09/24 10:23:01;;;;;;;0.17;0.17;;;15.00;99.90;;;;;;5067958;28;20056;-83
2022/09/24 10:25:28;;;;;;;0.28;0.28;;;14.90;99.90;;;;;;5051613;28;20048;-83
2022/09/24 10:30:55;;;;;;;0.30;0.30;;;15.00;99.90;;;;;;5076495;28;20079;-83
2022/09/24 10:33:23;;;;;;;0.20;0.20;;;15.10;99.90;;;;;;5069731;28;20131;-84
2022/09/24 10:36:17;;;;;;;0.30;0.30;;;15.30;99.90;;;;;;5056849;28;20041;-83
2022/09/24 10:38:43;;;;;;;0.47;0.47;;;15.40;99.90;;;;;;5077451;28;20039;-83
2022/09/24 10:41:26;;;;;;;0.30;0.30;;;15.40;99.90;;;;;;5049648;28;20036;-83
2022/09/24 10:43:53;;;;;;;0.20;0.20;;;15.50;99.90;;;;;;5066988;28;20044;-83
2022/09/24 10:46:52;;;;;;;0.30;0.30;;;15.40;99.90;;;;;;5077203;28;20394;-82
2022/09/24 10:49:27;;;;;;;0.20;0.20;;;15.40;99.90;;;;;;5053460;28;20056;-84
2022/09/24 10:52:02;;;;;;;0.20;0.20;;;15.30;99.90;;;;;;5068638;28;20087;-84
2022/09/24 10:55:10;;;;;;;0.40;0.40;;;15.30;99.90;;;;;;5048991;28;20101;-84
2022/09/24 10:58:12;;;;;;;0.20;0.20;;;15.30;99.90;;;;;;5075428;28;20040;-83
2022/09/24 11:01:18;;;;;;;0.20;0.20;;;15.30;99.90;;;;;;5069168;28;20549;-84
2022/09/24 11:03:58;;;;;;;0.20;0.20;;;15.30;99.90;;;;;;5067635;28;20098;-82
2022/09/24 11:06:34;;;;;;;0.40;0.40;;;15.20;99.90;;;;;;5056384;28;20063;-83
2022/09/24 11:09:41;;;;;;;0.20;0.20;;;15.20;99.90;;;;;;5068579;28;20111;-84
2022/09/24 11:12:34;;;;;;;0.25;0.25;;;15.20;99.90;;;;;;5052076;28;20111;-83
2022/09/24 11:15:57;;;;;;;0.20;0.20;;;15.20;99.90;;;;;;5070423;28;20454;-84
2022/09/24 11:18:48;;;;;;;0.22;0.22;;;15.10;99.90;;;;;;4984166;28;20511;-81
2022/09/24 11:21:32;;;;;;;0.30;0.30;;;15.10;99.90;;;;;;5068497;28;20045;-83
2022/09/24 11:24:21;;;;;;;0.30;0.30;;;15.00;99.90;;;;;;5081341;28;20078;-81
2022/09/24 11:27:08;;;;;;;0.20;0.20;;;15.00;99.90;;;;;;5073531;28;20497;-82
2022/09/24 11:30:03;;;;;;;0.50;0.50;;;15.00;99.90;;;;;;5057731;28;20405;-82
2022/09/24 11:33:00;;;;;;;0.60;0.60;;;14.90;99.90;;;;;;5063805;28;20044;-82
2022/09/24 11:35:44;;;;;;;0.90;0.90;;;14.80;99.90;;;;;;5044857;28;20371;-83
2022/09/24 11:38:34;;;;;;;0.20;0.20;;;14.80;99.90;;;;;;5062926;28;20157;-82
2022/09/24 11:41:16;;;;;;;0.17;0.17;;;14.70;99.90;;;;;;5071308;28;20090;-82
2022/09/24 11:43:57;;;;;;;0.30;0.30;;;14.70;99.90;;;;;;5060725;28;20390;-84
2022/09/24 11:46:46;;;;;;;0.20;0.20;;;14.70;99.90;;;;;;5081292;28;20112;-82
2022/09/24 11:49:32;;;;;;;0.20;0.20;;;14.70;99.90;;;;;;5071775;28;20052;-84
2022/09/24 11:52:29;;;;;;;0.70;0.43;;;14.80;99.90;;;;;;5071952;28;20512;-85
2022/09/24 11:55:16;;;;;;;0.22;0.22;;;14.80;99.90;;;;;;5069333;28;20383;-83
2022/09/24 11:58:12;;;;;;;0.47;0.47;;;14.80;99.90;;;;;;5070559;28;20044;-84
2022/09/24 12:00:46;;;;;;;0.20;0.20;;;14.80;99.90;;;;;;5061495;28;20363;-83
2022/09/24 12:03:33;;;;;;;0.30;0.30;;;14.70;99.90;;;;;;5054613;28;20052;-83
2022/09/24 12:06:03;;;;;;;;;;;14.70;99.90;;;;;;5050141;28;20074;-84
2022/09/24 12:08:35;;;;;;;0.20;0.20;;;14.70;99.90;;;;;;5068191;28;19916;-83
2022/09/24 12:11:14;;;;;;;0.20;0.20;;;14.70;99.90;;;;;;5060866;28;20095;-83
2022/09/24 12:14:04;;;;;;;0.20;0.20;;;14.70;99.90;;;;;;5073880;28;20117;-84
2022/09/24 12:16:34;;;;;;;0.22;0.22;;;14.60;99.90;;;;;;5073163;28;20385;-83
2022/09/24 12:19:18;;;;;;;0.50;0.50;;;14.60;99.90;;;;;;5057366;28;20071;-84
2022/09/24 12:21:46;;;;;;;0.20;0.20;;;14.60;99.90;;;;;;5071999;28;20044;-82
2022/09/24 12:24:21;;;;;;;0.20;0.20;;;14.70;99.90;;;;;;5069995;28;20103;-83
2022/09/24 12:26:48;;;;;;;0.30;0.30;;;14.70;99.90;;;;;;5067390;28;20037;-82
2022/09/24 12:32:57;;;;;;;0.20;0.20;;;14.70;99.90;;;;;;5070649;28;20091;-83
2022/09/24 12:35:36;;;;;;;0.20;0.20;;;14.70;99.90;;;;;;5071964;28;20037;-83
2022/09/24 12:38:04;;;;;;;0.20;0.20;;;14.70;99.90;;;;;;5070181;28;20083;-81
2022/09/24 12:40:54;;;;;;;0.30;0.30;;;14.60;99.90;;;;;;5071127;28;20048;-83
2022/09/24 12:43:25;;;;;;;0.20;0.20;;;14.50;99.90;;;;;;5071950;28;20051;-83
2022/09/24 12:46:04;;;;;;;0.30;0.30;;;14.60;99.90;;;;;;5068310;28;20079;-82
2022/09/24 12:48:34;;;;;;;0.20;0.20;;;14.50;99.90;;;;;;5070864;28;20443;-84
2022/09/24 12:51:03;;;;;;;0.20;0.20;;;14.50;99.90;;;;;;5049477;28;20055;-84
2022/09/24 12:53:35;;;;;;;0.25;0.25;;;14.50;99.90;;;;;;5066680;28;20048;-82
2022/09/24 12:56:03;;;;;;;0.20;0.20;;;14.40;99.90;;;;;;5069555;28;20048;-84
2022/09/24 12:58:50;;;;;;;0.22;0.22;;;14.40;99.90;;;;;;5054594;28;20076;-84
2022/09/24 13:01:19;;;;;;;0.25;0.25;;;14.30;99.90;;;;;;5044320;28;20047;-82
2022/09/24 13:03:45;;;;;;;0.20;0.20;;;14.20;99.90;;;;;;5070830;28;20081;-82
2022/09/24 13:06:33;;;;;;;0.25;0.25;;;14.20;99.90;;;;;;5058031;28;20074;-84
2022/09/24 13:08:59;;;;;;;0.30;0.30;;;14.10;99.90;;;;;;5068201;28;20056;-84
2022/09/24 13:11:31;;;;;;;;;;;14.10;99.90;;;;;;5071629;28;20461;-80
2022/09/24 13:14:20;;;;;;;0.68;0.60;;;14.10;99.90;;;;;;5085518;28;19924;-82
2022/09/24 13:16:49;;;;;;;0.20;0.20;;;14.00;99.90;;;;;;5095940;28;20077;-82
2022/09/24 13:19:39;;;;;;;0.20;0.20;;;14.00;99.90;;;;;;5085151;28;20449;-82
2022/09/24 13:22:24;;;;;;;0.25;0.25;;;14.00;99.90;;;;;;5081233;28;20394;-82
2022/09/24 13:24:53;;;;;;;0.15;0.15;;;14.00;99.90;;;;;;5082659;28;20048;-84
2022/09/24 13:27:20;;;;;;;0.20;0.20;;;14.10;99.90;;;;;;5066701;28;20094;-83
2022/09/24 13:30:08;;;;;;;0.20;0.20;;;14.00;99.90;;;;;;5052299;28;20378;-84
2022/09/24 13:33:08;;;;;;;0.30;0.30;;;14.10;99.90;;;;;;5047830;28;20048;-83
2022/09/24 13:35:53;;;;;;;0.25;0.25;;;14.10;99.90;;;;;;5056489;28;20056;-83